Time;durP1;ratioP1;P1;durP2;ratioP2;P2;SDS_P1;SDS_P2;PMS_P1;PMS_P2;Temp;Humidity;BMP_temperature;BMP_pressure;BME280_temperature;BME280_humidity;BME280_pressure;Samples;Min_cycle;Max_cycle;Signal;HPM_P1;HPM_P2
2023/03/01 00:02:45;;;;;;;126.30;63.40;;;;;;;-2.46;76.01;100041.04;221203;1275;22601;-77
2023/03/01 00:07:47;;;;;;;125.70;66.10;;;;;;;-2.48;76.12;100042.00;221477;1281;22661;-77
2023/03/01 00:12:51;;;;;;;139.80;68.00;;;;;;;-2.54;76.05;100036.91;221315;1275;22708;-77
2023/03/01 00:17:56;;;;;;;127.80;68.10;;;;;;;-2.58;76.22;100041.47;221264;1281;22680;-77
2023/03/01 00:22:58;;;;;;;144.30;74.90;;;;;;;-2.63;76.32;100045.15;221409;1278;22701;-77
2023/03/01 00:28:01;;;;;;;141.70;74.60;;;;;;;-2.68;76.31;100043.32;221530;1281;22631;-76
2023/03/01 00:33:03;;;;;;;165.70;80.60;;;;;;;-2.74;76.19;100044.79;221329;1280;22607;-77
2023/03/01 00:38:05;;;;;;;169.40;83.10;;;;;;;-2.80;76.57;100045.95;221260;1278;24283;-77
2023/03/01 00:43:10;;;;;;;164.70;82.10;;;;;;;-2.86;76.77;100031.58;221515;1280;22596;-77
2023/03/01 00:48:17;;;;;;;169.40;86.40;;;;;;;-2.92;76.78;100031.88;221437;1276;24167;-77
2023/03/01 00:53:21;;;;;;;163.80;79.40;;;;;;;-2.96;76.92;100030.71;221551;1278;22617;-77
2023/03/01 00:58:24;;;;;;;169.10;83.80;;;;;;;-3.01;77.08;100030.93;221389;1278;22562;-76
2023/03/01 01:03:27;;;;;;;168.00;82.20;;;;;;;-3.02;77.40;100027.53;221288;1278;22627;-76
2023/03/01 01:08:29;;;;;;;177.30;83.10;;;;;;;-3.00;77.59;100030.02;221439;1275;23024;-75
2023/03/01 01:13:31;;;;;;;175.00;86.50;;;;;;;-2.97;77.73;100025.55;221191;1271;23317;-75
2023/03/01 01:18:33;;;;;;;181.60;84.00;;;;;;;-2.95;77.42;100023.58;221399;1278;23503;-75
2023/03/01 01:23:37;;;;;;;168.40;81.90;;;;;;;-2.97;77.37;100021.40;221470;1273;25574;-76
2023/03/01 01:28:40;;;;;;;164.50;82.00;;;;;;;-2.99;77.52;100020.18;221346;1265;25509;-74
2023/03/01 01:33:43;;;;;;;172.30;85.20;;;;;;;-3.04;77.36;100014.70;221402;1275;24281;-75
2023/03/01 01:38:45;;;;;;;172.20;85.90;;;;;;;-3.09;77.48;100011.83;221413;1278;22602;-75
2023/03/01 01:44:08;;;;;;;171.80;83.50;;;;;;;-3.13;77.72;100010.14;221061;1281;24311;-76
2023/03/01 01:49:20;;;;;;;167.40;83.80;;;;;;;-3.15;77.83;100005.42;221222;1275;26417;-75
2023/03/01 01:54:31;;;;;;;163.70;82.60;;;;;;;-3.20;77.60;99995.46;221277;1271;24285;-74
2023/03/01 01:59:34;;;;;;;170.80;84.50;;;;;;;-3.24;77.79;99992.54;221422;1278;24275;-74
2023/03/01 02:04:36;;;;;;;166.40;82.90;;;;;;;-3.27;78.09;99976.66;221552;1275;26769;-73
2023/03/01 02:09:38;;;;;;;156.50;82.20;;;;;;;-3.31;78.05;99977.90;221468;1278;22648;-74
2023/03/01 02:14:40;;;;;;;157.50;80.60;;;;;;;-3.35;78.11;99978.41;221276;1267;23450;-74
2023/03/01 02:20:06;;;;;;;157.30;82.70;;;;;;;-3.39;78.09;99972.05;221247;1275;22598;-74
2023/03/01 02:25:18;;;;;;;170.30;86.20;;;;;;;-3.42;78.13;99968.27;221613;1280;23868;-75
2023/03/01 02:30:22;;;;;;;168.80;83.80;;;;;;;-3.42;78.39;99970.69;221151;1259;24349;-73
2023/03/01 02:35:24;;;;;;;168.30;82.00;;;;;;;-3.46;78.36;99968.79;221341;1278;26756;-74
2023/03/01 02:40:30;;;;;;;164.10;84.10;;;;;;;-3.49;78.52;99973.92;221260;1259;22883;-74
2023/03/01 02:45:32;;;;;;;165.20;83.20;;;;;;;-3.54;78.72;99973.59;221278;1278;22670;-74
2023/03/01 02:50:52;;;;;;;164.00;83.50;;;;;;;-3.57;78.56;99977.02;221451;1269;23879;-74
2023/03/01 02:55:54;;;;;;;165.40;84.60;;;;;;;-3.59;78.92;99981.45;221241;1279;22530;-74
2023/03/01 03:00:56;;;;;;;148.30;77.20;;;;;;;-3.58;78.66;99978.27;221136;1281;22779;-74
2023/03/01 03:05:59;;;;;;;148.50;73.70;;;;;;;-3.55;78.83;99974.52;221268;1278;22675;-74
2023/03/01 03:11:01;;;;;;;135.40;70.50;;;;;;;-3.50;78.92;99972.95;221318;1281;22671;-74
2023/03/01 03:16:04;;;;;;;143.90;72.30;;;;;;;-3.45;78.93;99972.52;221163;1275;22569;-73
2023/03/01 03:21:11;;;;;;;138.80;71.30;;;;;;;-3.42;79.02;99973.97;221458;1275;22584;-75
2023/03/01 03:26:14;;;;;;;131.80;66.40;;;;;;;-3.41;78.96;99964.64;221484;1275;24264;-74
2023/03/01 03:31:17;;;;;;;122.90;63.40;;;;;;;-3.40;78.81;99962.29;221238;1278;23249;-74
2023/03/01 03:36:22;;;;;;;119.60;58.50;;;;;;;-3.38;78.89;99957.73;221357;1270;23354;-74
2023/03/01 03:41:24;;;;;;;116.30;59.30;;;;;;;-3.37;78.95;99956.63;221432;1275;25708;-74
2023/03/01 03:46:26;;;;;;;113.20;57.80;;;;;;;-3.34;78.69;99951.52;221157;1278;22686;-74
2023/03/01 03:51:28;;;;;;;116.70;57.60;;;;;;;-3.35;78.68;99947.24;221310;1281;22689;-73
2023/03/01 03:56:30;;;;;;;134.20;66.90;;;;;;;-3.38;78.66;99947.75;221388;1278;22720;-74
2023/03/01 04:01:32;;;;;;;131.00;68.80;;;;;;;-3.43;78.79;99940.95;221218;1278;22571;-73
2023/03/01 04:06:34;;;;;;;133.00;68.30;;;;;;;-3.48;78.90;99944.42;221180;1278;22720;-74
2023/03/01 04:11:38;;;;;;;127.40;63.30;;;;;;;-3.52;79.12;99948.75;221354;1281;22721;-74
2023/03/01 04:16:40;;;;;;;127.70;65.30;;;;;;;-3.58;78.70;99944.73;221313;1278;22620;-74
2023/03/01 04:21:42;;;;;;;127.70;63.30;;;;;;;-3.64;78.71;99957.05;221432;1278;22653;-73
2023/03/01 04:26:44;;;;;;;124.20;63.50;;;;;;;-3.68;79.17;99957.89;221317;1278;24293;-74
2023/03/01 04:31:48;;;;;;;118.80;60.60;;;;;;;-3.71;78.97;99958.23;221390;1275;24240;-74
2023/03/01 04:36:51;;;;;;;127.30;60.00;;;;;;;-3.73;79.17;99952.98;221106;1278;24230;-75
2023/03/01 04:41:53;;;;;;;120.60;59.60;;;;;;;-3.75;79.16;99951.00;221174;1280;22654;-74
2023/03/01 04:46:54;;;;;;;111.00;56.90;;;;;;;-3.76;79.40;99952.80;221356;1278;25405;-73
2023/03/01 04:52:03;;;;;;;106.50;57.70;;;;;;;-3.78;79.16;99948.41;221313;1259;25512;-73
2023/03/01 04:57:05;;;;;;;137.00;68.60;;;;;;;-3.81;79.29;99952.83;221063;1280;24297;-74
2023/03/01 05:02:07;;;;;;;138.30;72.60;;;;;;;-3.83;79.60;99953.77;221301;1268;25658;-73
2023/03/01 05:07:09;;;;;;;141.30;71.80;;;;;;;-3.86;79.63;99942.03;221312;1278;22581;-74
2023/03/01 05:12:12;;;;;;;141.10;73.90;;;;;;;-3.89;79.61;99934.80;221281;1281;23762;-74
2023/03/01 05:17:14;;;;;;;148.20;74.60;;;;;;;-3.94;79.74;99934.11;221292;1278;23077;-74
2023/03/01 05:22:16;;;;;;;152.40;77.40;;;;;;;-3.96;79.92;99933.89;221241;1278;22608;-73
2023/03/01 05:27:18;;;;;;;149.20;78.90;;;;;;;-4.00;79.65;99930.09;221156;1280;22661;-74
2023/03/01 05:32:20;;;;;;;160.30;81.30;;;;;;;-4.02;79.94;99928.47;221269;1281;22579;-74
2023/03/01 05:37:22;;;;;;;159.30;81.50;;;;;;;-4.03;80.03;99926.98;221255;1281;22681;-73
2023/03/01 05:42:24;;;;;;;165.00;83.60;;;;;;;-4.03;79.94;99934.56;221306;1278;22724;-74
2023/03/01 05:47:26;;;;;;;174.40;88.70;;;;;;;-4.03;80.04;99936.10;221347;1280;22699;-74
2023/03/01 05:52:28;;;;;;;173.00;91.70;;;;;;;-4.02;79.87;99935.18;221421;1275;22600;-73
2023/03/01 05:57:30;;;;;;;179.60;92.40;;;;;;;-4.01;80.05;99928.78;221306;1278;23808;-74
2023/03/01 06:02:32;;;;;;;179.40;94.90;;;;;;;-3.98;79.97;99933.11;221287;1281;24238;-73
2023/03/01 06:07:34;;;;;;;171.00;89.30;;;;;;;-3.93;80.25;99946.82;221231;1281;24217;-73
2023/03/01 06:12:38;;;;;;;160.10;84.60;;;;;;;-3.83;80.30;99947.08;221281;1280;22579;-74
2023/03/01 06:17:42;;;;;;;146.70;76.80;;;;;;;-3.72;80.62;99945.17;221387;1280;24218;-73
2023/03/01 06:22:46;;;;;;;147.70;77.00;;;;;;;-3.61;80.73;99947.93;221544;1275;22561;-73
2023/03/01 06:27:48;;;;;;;142.30;77.00;;;;;;;-3.49;80.33;99953.93;221372;1275;22570;-73
2023/03/01 06:32:50;;;;;;;144.50;75.90;;;;;;;-3.35;80.56;99961.02;221069;1281;24495;-73
2023/03/01 06:37:52;;;;;;;142.40;74.20;;;;;;;-3.19;80.61;99959.40;221367;1281;23825;-75
2023/03/01 06:42:54;;;;;;;136.60;69.40;;;;;;;-3.00;80.93;99958.88;221207;1278;24264;-74
2023/03/01 06:48:04;;;;;;;126.60;67.90;;;;;;;-2.78;80.76;99959.34;221269;1260;22768;-74
2023/03/01 06:53:06;;;;;;;105.70;56.80;;;;;;;-2.56;80.59;99959.24;221467;1259;23191;-76
2023/03/01 06:58:09;;;;;;;111.50;58.00;;;;;;;-2.33;80.41;99954.64;221570;1271;22574;-75
2023/03/01 07:03:11;;;;;;;110.10;57.40;;;;;;;-2.10;80.20;99954.16;221477;1275;22680;-74
2023/03/01 07:08:13;;;;;;;107.30;57.90;;;;;;;-1.89;79.83;99956.48;221473;1278;23451;-74
2023/03/01 07:13:15;;;;;;;101.50;54.50;;;;;;;-1.66;79.92;99948.20;221688;1260;22529;-74
2023/03/01 07:18:18;;;;;;;94.40;53.50;;;;;;;-1.47;79.35;99953.21;221405;1274;22622;-76
2023/03/01 07:23:21;;;;;;;97.90;54.20;;;;;;;-1.32;79.01;99951.37;221481;1276;22530;-74
2023/03/01 07:28:24;;;;;;;98.10;54.90;;;;;;;-1.15;78.79;99942.12;221567;1262;25326;-75
2023/03/01 07:33:26;;;;;;;102.40;53.40;;;;;;;-0.98;78.32;99941.17;221448;1261;24955;-74
2023/03/01 07:38:29;;;;;;;97.60;54.50;;;;;;;-0.82;78.28;99943.17;221465;1271;22525;-75
2023/03/01 07:43:32;;;;;;;106.10;57.30;;;;;;;-0.62;77.86;99938.34;221447;1275;24879;-74
2023/03/01 07:48:34;;;;;;;117.20;61.70;;;;;;;-0.42;78.04;99929.38;221603;1268;22531;-75
2023/03/01 07:53:36;;;;;;;99.30;54.50;;;;;;;-0.20;77.80;99918.60;221186;1275;23323;-75
2023/03/01 07:58:42;;;;;;;99.50;56.40;;;;;;;-0.02;77.45;99907.63;221170;1277;22745;-76
2023/03/01 08:03:46;;;;;;;102.30;55.10;;;;;;;0.18;77.53;99905.52;221339;1266;24407;-75
2023/03/01 08:08:48;;;;;;;95.90;52.40;;;;;;;0.40;77.50;99902.25;221119;1278;22564;-76
2023/03/01 08:13:50;;;;;;;94.20;54.00;;;;;;;0.61;76.97;99901.42;221408;1267;25471;-75
2023/03/01 08:18:56;;;;;;;87.20;47.70;;;;;;;0.82;76.84;99905.80;221271;1271;22540;-76
2023/03/01 08:23:58;;;;;;;84.40;46.20;;;;;;;0.98;76.32;99903.15;221347;1262;22549;-77
2023/03/01 08:29:01;;;;;;;75.40;43.80;;;;;;;1.18;76.38;99904.31;221465;1276;22659;-77
2023/03/01 08:34:08;;;;;;;66.30;38.90;;;;;;;1.33;75.50;99900.30;221245;1278;22529;-76
2023/03/01 08:39:12;;;;;;;58.90;34.50;;;;;;;1.49;74.89;99901.86;221278;1266;22534;-77
2023/03/01 08:44:19;;;;;;;51.80;30.60;;;;;;;1.65;74.31;99902.20;221344;1262;22534;-77
2023/03/01 08:49:21;;;;;;;44.00;26.40;;;;;;;1.79;73.80;99907.13;221261;1266;22539;-78
2023/03/01 08:54:24;;;;;;;31.90;20.70;;;;;;;1.92;73.18;99902.92;221346;1259;22584;-77
2023/03/01 08:59:26;;;;;;;35.60;21.70;;;;;;;2.07;72.60;99894.40;221522;1259;22535;-78
2023/03/01 09:04:28;;;;;;;25.00;16.40;;;;;;;2.25;71.95;99890.15;221503;1275;22524;-78
2023/03/01 09:09:31;;;;;;;35.40;20.20;;;;;;;2.45;71.72;99883.57;221486;1279;22566;-76
2023/03/01 09:14:34;;;;;;;37.20;23.10;;;;;;;2.63;71.29;99875.78;221244;1281;24335;-76
2023/03/01 09:19:38;;;;;;;37.50;24.10;;;;;;;2.85;71.07;99875.39;221292;1275;22539;-77
2023/03/01 09:24:41;;;;;;;29.30;19.40;;;;;;;3.05;70.67;99885.24;221275;1278;22547;-77
2023/03/01 09:29:43;;;;;;;24.00;14.60;;;;;;;3.16;69.85;99884.94;221337;1275;22541;-76
2023/03/01 09:35:00;;;;;;;23.90;14.70;;;;;;;3.31;69.42;99883.33;221307;1270;24209;-77
2023/03/01 09:40:16;;;;;;;28.90;19.10;;;;;;;3.43;68.83;99879.58;221372;1278;26241;-76
2023/03/01 09:45:29;;;;;;;30.10;19.40;;;;;;;3.53;68.43;99875.21;221302;1278;22555;-77
2023/03/01 09:50:38;;;;;;;37.80;23.00;;;;;;;3.65;68.30;99878.08;221157;1275;22536;-78
2023/03/01 09:55:55;;;;;;;40.50;24.00;;;;;;;3.75;68.05;99877.33;221337;1275;23879;-77
2023/03/01 10:01:10;;;;;;;40.80;26.30;;;;;;;3.92;67.83;99881.92;221318;1278;24176;-77
2023/03/01 10:06:20;;;;;;;41.90;27.40;;;;;;;4.05;67.71;99877.95;221264;1275;22534;-78
2023/03/01 10:11:39;;;;;;;45.10;26.90;;;;;;;4.19;67.45;99872.44;221259;1272;22540;-78
2023/03/01 10:16:50;;;;;;;42.50;27.10;;;;;;;4.30;66.67;99862.54;221481;1266;25334;-78
2023/03/01 10:21:53;;;;;;;50.50;27.60;;;;;;;4.42;66.67;99863.36;221600;1275;22982;-80
2023/03/01 10:27:00;;;;;;;46.20;26.70;;;;;;;4.56;66.43;99854.82;221427;1262;22662;-79
2023/03/01 10:32:06;;;;;;;40.90;26.60;;;;;;;4.66;65.97;99852.87;221231;1275;25271;-79
2023/03/01 10:38:05;;;;;;;42.30;26.40;;;;;;;4.71;65.45;99846.17;221370;1276;22527;-79
2023/03/01 10:43:12;;;;;;;41.00;26.00;;;;;;;4.69;64.91;99846.13;221209;1275;22873;-79
2023/03/01 10:48:23;;;;;;;41.30;24.80;;;;;;;4.74;64.89;99839.61;221302;1274;24863;-79
2023/03/01 10:53:35;;;;;;;31.70;21.10;;;;;;;4.87;64.94;99833.48;221529;1265;24385;-80
2023/03/01 10:58:41;;;;;;;33.20;22.20;;;;;;;5.00;64.65;99834.17;221191;1262;24068;-79
2023/03/01 11:04:02;;;;;;;35.90;23.30;;;;;;;5.07;63.98;99827.34;221269;1278;25282;-77
2023/03/01 11:09:20;;;;;;;39.60;25.50;;;;;;;5.08;63.70;99824.57;221258;1281;22630;-78
2023/03/01 11:14:31;;;;;;;40.20;24.60;;;;;;;5.14;63.36;99818.70;221052;1270;474913;-77
2023/03/01 11:19:37;;;;;;;39.50;24.50;;;;;;;5.26;63.78;99811.90;221230;1275;23027;-76
2023/03/01 11:24:45;;;;;;;38.90;22.80;;;;;;;5.39;63.54;99806.77;221369;1279;24947;-78
2023/03/01 11:29:59;;;;;;;36.70;22.90;;;;;;;5.49;63.14;99796.00;221283;1278;22639;-76
2023/03/01 11:35:10;;;;;;;37.20;23.90;;;;;;;5.49;62.05;99789.85;221523;1278;25009;-76
2023/03/01 11:40:21;;;;;;;39.70;26.40;;;;;;;5.48;62.25;99791.48;221351;1281;22571;-77
2023/03/01 11:45:35;;;;;;;34.90;21.50;;;;;;;5.61;62.72;99793.38;221313;1274;22543;-76
2023/03/01 11:50:50;;;;;;;32.30;20.20;;;;;;;5.72;61.68;99791.91;221152;1260;25476;-77
2023/03/01 11:56:16;;;;;;;28.60;18.90;;;;;;;5.74;60.80;99785.93;221484;1268;22615;-74
2023/03/01 12:01:32;;;;;;;29.80;18.80;;;;;;;5.77;60.78;99778.14;221294;1276;22539;-74
2023/03/01 12:07:11;;;;;;;29.90;19.70;;;;;;;5.84;60.68;99769.37;221372;1276;25310;-75
2023/03/01 12:12:30;;;;;;;25.60;18.50;;;;;;;5.97;60.67;99760.83;221793;1269;22596;-74
2023/03/01 12:17:38;;;;;;;26.80;19.60;;;;;;;6.10;60.92;99759.45;221570;1272;23018;-75
2023/03/01 12:23:16;;;;;;;27.30;18.00;;;;;;;6.22;60.76;99759.36;221324;1276;23130;-75
2023/03/01 12:28:51;;;;;;;25.30;19.10;;;;;;;6.28;59.51;99748.50;221337;1277;25487;-74
2023/03/01 12:34:22;;;;;;;29.50;20.30;;;;;;;6.29;60.01;99747.54;221333;1282;25239;-74
2023/03/01 12:40:04;;;;;;;29.30;20.50;;;;;;;6.37;60.07;99735.30;221321;1278;22610;-75
2023/03/01 12:45:32;;;;;;;25.90;18.60;;;;;;;6.37;59.41;99732.01;221367;1281;22531;-75
2023/03/01 12:51:16;;;;;;;32.00;19.00;;;;;;;6.37;59.25;99731.06;221302;1270;22532;-75
2023/03/01 12:56:22;;;;;;;29.30;17.20;;;;;;;6.34;59.19;99721.34;221131;1269;24291;-75
2023/03/01 13:01:49;;;;;;;26.80;17.20;;;;;;;6.36;59.05;99710.38;221373;1267;22526;-76
2023/03/01 13:07:30;;;;;;;28.80;18.80;;;;;;;6.40;58.99;99707.90;221217;1278;22647;-75
2023/03/01 13:13:11;;;;;;;28.00;17.40;;;;;;;6.45;58.93;99699.50;221336;1261;25408;-75
2023/03/01 13:18:32;;;;;;;27.80;17.20;;;;;;;6.48;58.98;99695.08;221351;1270;26524;-75
2023/03/01 13:23:38;;;;;;;28.90;16.20;;;;;;;6.51;58.89;99693.79;221384;1275;22543;-76
2023/03/01 13:28:51;;;;;;;25.30;16.40;;;;;;;6.51;58.48;99691.71;221245;1275;25471;-75
2023/03/01 13:33:56;;;;;;;26.40;16.40;;;;;;;6.55;58.65;99688.88;221336;1275;24743;-73
2023/03/01 13:39:02;;;;;;;22.10;16.60;;;;;;;6.59;58.52;99682.71;221468;1262;23514;-75
2023/03/01 13:44:26;;;;;;;25.20;16.90;;;;;;;6.59;58.39;99683.70;221302;1276;22536;-75
2023/03/01 13:49:33;;;;;;;22.90;16.10;;;;;;;6.59;58.30;99678.34;221322;1277;22566;-74
2023/03/01 13:54:47;;;;;;;23.00;16.10;;;;;;;6.60;58.25;99670.11;221423;1277;22529;-74
2023/03/01 13:59:49;;;;;;;23.90;16.40;;;;;;;6.61;58.15;99670.77;221319;1277;22521;-75
2023/03/01 14:05:02;;;;;;;22.40;15.90;;;;;;;6.61;58.26;99667.23;221205;1261;24358;-74
2023/03/01 14:10:06;;;;;;;24.70;15.40;;;;;;;6.63;57.84;99660.08;221085;1275;22580;-73
2023/03/01 14:15:46;;;;;;;20.60;14.40;;;;;;;6.59;57.93;99658.14;221031;1261;22573;-75
2023/03/01 14:20:52;;;;;;;24.40;15.80;;;;;;;6.60;57.13;99657.89;221133;1276;22526;-74
2023/03/01 14:25:57;;;;;;;22.80;14.40;;;;;;;6.59;57.28;99648.75;221081;1275;24404;-73
2023/03/01 14:31:01;;;;;;;22.20;15.60;;;;;;;6.56;56.93;99647.61;221247;1279;24222;-73
2023/03/01 14:36:12;;;;;;;23.40;15.10;;;;;;;6.51;56.87;99643.00;221257;1275;25297;-73
2023/03/01 14:41:21;;;;;;;22.30;14.80;;;;;;;6.45;56.84;99632.41;221199;1262;22482;-73
2023/03/01 14:46:28;;;;;;;27.00;17.80;;;;;;;6.40;56.99;99630.73;221157;1276;25405;-74
2023/03/01 14:51:40;;;;;;;25.30;15.30;;;;;;;6.35;57.05;99625.23;221383;1281;24224;-73
2023/03/01 14:56:46;;;;;;;21.60;15.20;;;;;;;6.31;56.54;99623.84;221239;1270;22538;-73
2023/03/01 15:01:51;;;;;;;20.10;15.50;;;;;;;6.25;56.85;99626.16;221056;1275;24109;-74
2023/03/01 15:07:04;;;;;;;22.30;15.00;;;;;;;6.16;56.93;99628.17;221148;1276;22554;-78
2023/03/01 15:12:29;;;;;;;20.40;14.40;;;;;;;6.09;56.84;99623.75;220990;1275;23845;-78
2023/03/01 15:17:37;;;;;;;20.90;13.80;;;;;;;6.01;56.89;99625.52;220906;1275;25365;-78
2023/03/01 15:22:51;;;;;;;22.50;14.20;;;;;;;5.96;56.66;99629.77;220979;1280;22625;-77
2023/03/01 15:27:55;;;;;;;20.30;13.30;;;;;;;5.88;56.39;99624.20;220905;1279;22566;-78
2023/03/01 15:33:49;;;;;;;22.70;13.30;;;;;;;5.78;56.05;99618.71;221309;1275;24143;-77
2023/03/01 15:38:57;;;;;;;18.00;11.70;;;;;;;5.63;56.12;99617.34;220837;1282;22563;-78
2023/03/01 15:44:14;;;;;;;17.90;10.50;;;;;;;5.49;55.84;99615.80;220927;1275;22602;-78
2023/03/01 15:49:37;;;;;;;15.50;10.20;;;;;;;5.32;55.50;99618.23;220962;1280;24619;-79
2023/03/01 15:54:54;;;;;;;16.30;10.40;;;;;;;5.14;55.70;99624.86;220869;1280;25482;-78
2023/03/01 15:59:56;;;;;;;22.90;12.50;;;;;;;4.99;55.41;99632.08;220948;1276;22641;-77
2023/03/01 16:04:58;;;;;;;21.60;11.10;;;;;;;4.82;55.83;99630.43;220924;1282;23507;-77
2023/03/01 16:10:01;;;;;;;18.80;10.90;;;;;;;4.64;56.01;99628.81;220880;1280;24206;-78
2023/03/01 16:15:04;;;;;;;20.90;11.80;;;;;;;4.46;56.10;99625.94;220928;1283;22581;-78
2023/03/01 16:20:07;;;;;;;18.50;11.70;;;;;;;4.28;56.22;99632.91;220855;1277;22540;-77
2023/03/01 16:25:13;;;;;;;21.90;12.60;;;;;;;4.07;56.59;99628.83;220786;1282;23290;-76
2023/03/01 16:30:22;;;;;;;25.60;13.90;;;;;;;3.86;56.60;99623.42;220894;1273;25461;-77
2023/03/01 16:35:24;;;;;;;36.30;21.00;;;;;;;3.72;56.05;99625.11;221076;1276;22677;-77
2023/03/01 16:40:29;;;;;;;64.10;26.10;;;;;;;3.66;56.04;99629.94;220896;1282;25074;-77
2023/03/01 16:45:35;;;;;;;52.00;23.50;;;;;;;3.63;55.61;99628.30;220909;1279;22551;-77
2023/03/01 16:50:37;;;;;;;42.30;23.80;;;;;;;3.53;55.90;99632.17;220865;1280;22655;-77
2023/03/01 16:55:45;;;;;;;34.00;19.40;;;;;;;3.37;56.21;99638.73;220868;1259;22531;-78
2023/03/01 17:00:47;;;;;;;39.00;21.80;;;;;;;3.22;56.95;99645.48;221063;1280;22600;-76
2023/03/01 17:05:50;;;;;;;36.20;20.50;;;;;;;3.08;57.36;99647.10;220919;1270;22825;-77
2023/03/01 17:10:52;;;;;;;36.80;22.30;;;;;;;2.94;57.97;99651.84;220947;1278;22541;-77
2023/03/01 17:15:54;;;;;;;39.70;23.90;;;;;;;2.80;58.55;99656.06;220911;1282;25506;-77
2023/03/01 17:20:57;;;;;;;36.00;21.70;;;;;;;2.65;58.99;99657.57;220946;1276;25416;-78
2023/03/01 17:25:59;;;;;;;38.50;21.50;;;;;;;2.50;59.60;99663.04;220930;1275;25010;-77
2023/03/01 17:31:04;;;;;;;39.40;21.50;;;;;;;2.34;60.20;99662.16;220916;1276;22534;-77
2023/03/01 17:36:07;;;;;;;35.80;20.60;;;;;;;2.17;60.94;99661.17;220976;1275;23761;-77
2023/03/01 17:41:11;;;;;;;40.60;22.30;;;;;;;2.03;61.05;99664.48;220902;1278;26401;-77
2023/03/01 17:46:13;;;;;;;39.40;24.20;;;;;;;1.86;61.49;99663.10;220952;1280;22640;-77
2023/03/01 17:51:15;;;;;;;53.80;31.30;;;;;;;1.73;61.67;99667.30;220903;1259;22544;-77
2023/03/01 17:56:20;;;;;;;56.40;32.00;;;;;;;1.64;61.96;99666.66;220937;1283;25516;-77
2023/03/01 18:01:23;;;;;;;54.70;31.30;;;;;;;1.53;62.06;99659.08;220839;1279;24588;-77
2023/03/01 18:06:27;;;;;;;54.60;31.20;;;;;;;1.42;62.83;99657.78;220968;1279;25461;-76
2023/03/01 18:11:34;;;;;;;64.20;33.40;;;;;;;1.32;62.93;99655.92;221058;1276;22657;-77
2023/03/01 18:16:38;;;;;;;49.90;29.20;;;;;;;1.19;63.41;99656.11;220900;1281;22580;-76
2023/03/01 18:21:41;;;;;;;53.00;29.60;;;;;;;1.04;63.75;99656.07;220827;1282;24345;-77
2023/03/01 18:26:43;;;;;;;55.40;29.20;;;;;;;0.90;64.43;99656.91;220958;1280;22651;-77
2023/03/01 18:31:45;;;;;;;61.20;32.70;;;;;;;0.75;65.11;99653.79;220964;1277;25344;-76
2023/03/01 18:36:50;;;;;;;64.90;36.30;;;;;;;0.66;65.34;99651.66;220944;1277;22571;-77
2023/03/01 18:42:09;;;;;;;74.30;38.00;;;;;;;0.59;65.60;99648.83;220905;1278;22639;-77
2023/03/01 18:47:12;;;;;;;98.80;42.40;;;;;;;0.56;65.64;99658.19;220866;1282;25389;-76
2023/03/01 18:52:14;;;;;;;88.20;38.40;;;;;;;0.59;65.56;99649.34;220900;1279;25237;-77
2023/03/01 18:57:16;;;;;;;71.30;34.20;;;;;;;0.65;65.43;99648.02;220943;1274;22665;-76
2023/03/01 19:02:20;;;;;;;62.80;32.80;;;;;;;0.73;64.95;99644.77;220927;1278;22530;-77
2023/03/01 19:07:22;;;;;;;59.60;33.40;;;;;;;0.80;64.79;99642.19;220855;1276;25295;-76
2023/03/01 19:12:26;;;;;;;60.70;32.70;;;;;;;0.87;64.78;99640.67;220828;1279;24791;-77
2023/03/01 19:17:30;;;;;;;66.60;35.70;;;;;;;0.91;64.38;99645.90;220930;1277;25417;-76
2023/03/01 19:22:32;;;;;;;68.30;35.30;;;;;;;0.88;64.30;99649.44;221029;1275;22567;-76
2023/03/01 19:27:34;;;;;;;74.30;37.30;;;;;;;0.79;64.47;99652.30;220869;1260;22582;-77
2023/03/01 19:32:37;;;;;;;73.40;38.90;;;;;;;0.68;64.28;99651.16;220882;1280;22543;-76
2023/03/01 19:37:39;;;;;;;70.90;39.80;;;;;;;0.61;64.15;99658.92;220888;1279;22620;-77
2023/03/01 19:42:41;;;;;;;88.00;42.60;;;;;;;0.51;64.54;99664.42;220820;1275;26501;-76
2023/03/01 19:47:46;;;;;;;89.90;44.80;;;;;;;0.38;64.70;99663.23;220945;1280;22577;-77
2023/03/01 19:52:49;;;;;;;104.80;49.00;;;;;;;0.25;65.09;99653.52;220820;1283;25169;-75
2023/03/01 19:57:52;;;;;;;111.60;53.30;;;;;;;0.11;65.24;99642.88;220900;1275;25419;-76
2023/03/01 20:02:54;;;;;;;102.90;52.70;;;;;;;-0.03;65.26;99642.40;220796;1282;24299;-77
2023/03/01 20:07:59;;;;;;;104.10;53.10;;;;;;;-0.16;65.14;99645.34;220776;1281;22824;-76
2023/03/01 20:13:01;;;;;;;105.20;53.40;;;;;;;-0.29;65.68;99650.83;220915;1283;24755;-77
2023/03/01 20:18:04;;;;;;;100.90;51.90;;;;;;;-0.41;66.06;99646.21;220913;1281;22594;-77
2023/03/01 20:23:10;;;;;;;112.90;55.50;;;;;;;-0.49;66.00;99648.86;220793;1282;24242;-75
2023/03/01 20:28:12;;;;;;;120.30;59.70;;;;;;;-0.58;65.97;99653.21;220846;1278;22585;-77
2023/03/01 20:33:14;;;;;;;109.90;55.80;;;;;;;-0.65;66.33;99653.67;220887;1280;22827;-77
2023/03/01 20:38:17;;;;;;;118.70;58.60;;;;;;;-0.71;66.67;99652.95;220989;1282;22531;-76
2023/03/01 20:43:19;;;;;;;132.30;60.20;;;;;;;-0.74;66.50;99654.03;220926;1276;22533;-77
2023/03/01 20:48:21;;;;;;;123.80;58.30;;;;;;;-0.75;66.26;99650.27;220949;1278;22568;-76
2023/03/01 20:53:24;;;;;;;149.90;70.50;;;;;;;-0.74;66.81;99651.27;221144;1280;24809;-76
2023/03/01 20:58:31;;;;;;;123.00;61.40;;;;;;;-0.72;66.55;99654.24;220943;1279;25414;-77
2023/03/01 21:03:34;;;;;;;102.70;51.00;;;;;;;-0.62;67.19;99653.64;220811;1272;23979;-76
2023/03/01 21:08:37;;;;;;;124.80;55.60;;;;;;;-0.55;67.18;99651.61;220928;1278;25523;-76
2023/03/01 21:13:40;;;;;;;123.10;56.10;;;;;;;-0.44;67.17;99649.02;221047;1280;24281;-75
2023/03/01 21:18:42;;;;;;;115.80;55.80;;;;;;;-0.44;66.74;99648.33;220917;1275;22529;-76
2023/03/01 21:23:45;;;;;;;110.70;54.90;;;;;;;-0.53;66.52;99647.36;220998;1269;22531;-77
2023/03/01 21:28:49;;;;;;;115.80;55.80;;;;;;;-0.66;66.76;99647.30;220929;1280;22652;-76
2023/03/01 21:33:54;;;;;;;110.90;55.70;;;;;;;-0.81;66.86;99647.17;221073;1275;22667;-75
2023/03/01 21:38:59;;;;;;;120.60;56.40;;;;;;;-0.94;67.12;99639.36;220829;1275;22705;-76
2023/03/01 21:44:05;;;;;;;132.20;65.20;;;;;;;-1.03;67.23;99639.63;220949;1278;23156;-77
2023/03/01 21:49:09;;;;;;;154.40;72.40;;;;;;;-1.12;67.35;99641.70;220930;1278;24248;-77
2023/03/01 21:54:13;;;;;;;127.80;60.30;;;;;;;-1.21;67.43;99644.14;220786;1282;24322;-76
2023/03/01 21:59:20;;;;;;;135.40;64.20;;;;;;;-1.32;68.00;99647.75;221036;1279;22530;-76
2023/03/01 22:04:23;;;;;;;143.80;67.40;;;;;;;-1.48;68.21;99648.50;221006;1282;22756;-75
2023/03/01 22:09:27;;;;;;;149.60;71.10;;;;;;;-1.60;68.47;99649.77;220857;1279;22540;-76
2023/03/01 22:14:35;;;;;;;153.00;70.60;;;;;;;-1.72;68.92;99640.95;220889;1283;22518;-75
2023/03/01 22:19:37;;;;;;;145.10;69.40;;;;;;;-1.81;69.27;99641.80;220965;1280;22645;-76
2023/03/01 22:24:39;;;;;;;162.10;71.50;;;;;;;-1.89;69.36;99636.77;220798;1280;22596;-77
2023/03/01 22:29:42;;;;;;;154.20;74.70;;;;;;;-1.95;69.18;99634.91;220979;1283;24277;-76
2023/03/01 22:34:44;;;;;;;154.70;73.20;;;;;;;-1.99;69.21;99639.29;220969;1278;26473;-75
2023/03/01 22:39:46;;;;;;;161.50;74.30;;;;;;;-2.03;69.43;99641.73;220834;1283;25106;-76
2023/03/01 22:44:49;;;;;;;150.00;73.90;;;;;;;-2.06;69.53;99637.08;220933;1279;22649;-74
2023/03/01 22:49:58;;;;;;;144.70;68.40;;;;;;;-2.09;69.93;99638.83;221013;1282;22846;-72
2023/03/01 22:55:01;;;;;;;146.90;69.90;;;;;;;-2.13;70.59;99632.63;220998;1280;22532;-75
2023/03/01 23:00:11;;;;;;;145.80;69.60;;;;;;;-2.15;70.44;99639.64;220947;1259;24430;-73
2023/03/01 23:05:14;;;;;;;145.30;68.20;;;;;;;-2.19;70.67;99638.48;221026;1278;22528;-74
2023/03/01 23:10:17;;;;;;;140.60;69.10;;;;;;;-2.25;70.61;99634.35;221024;1279;22534;-74
2023/03/01 23:15:19;;;;;;;131.60;65.10;;;;;;;-2.30;70.79;99641.74;220862;1282;165315;-73